createdAt,value
2018-06-14T00:00:35.714Z,23.22
2018-06-14T00:01:35.739Z,23.34
2018-06-14T00:02:35.827Z,23.34
2018-06-14T00:03:35.808Z,23.26
2018-06-14T00:05:35.867Z,23.29
2018-06-14T00:06:36.107Z,23.31
2018-06-14T00:07:36.142Z,23.29
2018-06-14T00:08:36.322Z,23.22
2018-06-14T00:09:36.597Z,23.21
2018-06-14T00:10:36.029Z,23.26
2018-06-14T00:11:36.110Z,23.26
2018-06-14T00:12:36.093Z,23.21
2018-06-14T00:14:36.164Z,23.18
2018-06-14T00:15:36.301Z,23.15
2018-06-14T00:16:36.524Z,23.18
2018-06-14T00:17:36.337Z,23.16
2018-06-14T00:18:36.340Z,23.09
2018-06-14T00:19:36.365Z,23.11
2018-06-14T00:20:36.555Z,23.09
2018-06-14T00:21:36.428Z,23.06
2018-06-14T00:22:36.463Z,23.11
2018-06-14T00:23:36.741Z,23.12
2018-06-14T00:24:36.526Z,23.07
2018-06-14T00:25:36.557Z,23.06
2018-06-14T00:26:36.890Z,23.09
2018-06-14T00:27:36.620Z,23.07
2018-06-14T00:28:36.611Z,23.06
2018-06-14T00:29:36.635Z,23.00
2018-06-14T00:30:36.928Z,23.00
2018-06-14T00:31:36.697Z,22.99
2018-06-14T00:32:36.734Z,22.99
2018-06-14T00:33:36.807Z,23.09
2018-06-14T00:34:36.852Z,22.99
2018-06-14T00:35:36.826Z,22.97
2018-06-14T00:36:36.855Z,23.00
2018-06-14T00:37:37.237Z,22.99
2018-06-14T00:38:36.968Z,22.91
2018-06-14T00:39:37.002Z,22.97
2018-06-14T00:40:37.342Z,22.97
2018-06-14T00:41:37.067Z,22.96
2018-06-14T00:43:37.328Z,22.94
2018-06-14T00:44:37.171Z,22.85
2018-06-14T00:46:37.171Z,22.94
2018-06-14T00:47:37.208Z,22.78
2018-06-14T00:48:37.442Z,22.85
2018-06-14T00:49:37.335Z,22.82
2018-06-14T00:50:37.652Z,22.86
2018-06-14T00:51:37.539Z,22.82
2018-06-14T00:52:37.432Z,22.91
2018-06-14T00:53:37.464Z,22.79
2018-06-14T00:54:37.476Z,22.79
2018-06-14T00:55:37.610Z,22.84
2018-06-14T00:56:37.841Z,22.72
2018-06-14T00:57:38.325Z,22.81
2018-06-14T00:59:37.644Z,22.72
2018-06-14T01:00:38.173Z,22.79
2018-06-14T01:01:37.703Z,22.78
2018-06-14T01:03:38.011Z,22.76
2018-06-14T01:04:37.743Z,22.72
2018-06-14T01:05:37.820Z,22.76
2018-06-14T01:06:37.854Z,22.66
2018-06-14T01:07:38.088Z,22.72
2018-06-14T01:08:37.923Z,22.70
2018-06-14T01:09:37.955Z,22.61
2018-06-14T01:10:38.836Z,22.74
2018-06-14T01:11:38.025Z,22.76
2018-06-14T01:12:37.997Z,22.74
2018-06-14T01:13:38.077Z,22.75
2018-06-14T01:14:38.120Z,22.74
2018-06-14T01:15:38.092Z,22.74
2018-06-14T01:16:38.224Z,22.74
2018-06-14T01:17:39.071Z,22.72
2018-06-14T01:18:38.238Z,22.67
2018-06-14T01:20:38.295Z,22.66
2018-06-14T01:21:38.336Z,22.74
2018-06-14T01:23:38.399Z,22.67
2018-06-14T01:24:38.627Z,22.66
2018-06-14T01:25:38.459Z,22.72
2018-06-14T01:26:38.441Z,22.72
2018-06-14T01:27:38.471Z,22.72
2018-06-14T01:28:38.559Z,22.69
2018-06-14T01:30:38.921Z,22.70
2018-06-14T01:32:38.677Z,22.61
2018-06-14T01:33:38.910Z,22.76
2018-06-14T01:34:38.736Z,22.66
2018-06-14T01:36:39.256Z,22.63
2018-06-14T01:37:38.834Z,22.59
2018-06-14T01:38:38.865Z,22.59
2018-06-14T01:39:39.099Z,22.59
2018-06-14T01:40:39.133Z,22.56
2018-06-14T01:41:39.171Z,22.64
2018-06-14T01:43:39.475Z,22.57
2018-06-14T01:44:39.059Z,22.60
2018-06-14T01:45:39.084Z,22.61
2018-06-14T01:46:39.087Z,22.59
2018-06-14T01:47:39.102Z,22.66
2018-06-14T01:48:39.134Z,22.59
2018-06-14T01:49:39.663Z,22.54
2018-06-14T01:50:39.398Z,22.57
2018-06-14T01:52:39.263Z,22.57
2018-06-14T01:53:39.335Z,22.49
2018-06-14T01:54:39.580Z,22.49
2018-06-14T01:55:39.603Z,22.48
2018-06-14T01:56:39.384Z,22.51
2018-06-14T01:58:39.447Z,22.52
2018-06-14T01:59:39.528Z,22.51
2018-06-14T02:00:39.961Z,22.49
2018-06-14T02:01:39.940Z,22.46
2018-06-14T02:02:39.803Z,22.52
2018-06-14T02:03:39.650Z,22.46
2018-06-14T02:05:39.924Z,22.42
2018-06-14T02:06:39.768Z,22.48
2018-06-14T02:07:40.038Z,22.42
2018-06-14T02:08:39.813Z,22.42
2018-06-14T02:09:39.799Z,22.38
2018-06-14T02:11:39.854Z,22.45
2018-06-14T02:12:39.892Z,22.36
2018-06-14T02:13:40.214Z,22.36
2018-06-14T02:14:40.152Z,22.44
2018-06-14T02:16:40.215Z,22.39
2018-06-14T02:17:40.044Z,22.39
2018-06-14T02:18:40.081Z,22.44
2018-06-14T02:19:40.356Z,22.41
2018-06-14T02:20:40.137Z,22.42
2018-06-14T02:21:40.183Z,22.45
2018-06-14T02:22:40.199Z,22.31
2018-06-14T02:23:40.241Z,22.41
2018-06-14T02:24:40.279Z,22.31
2018-06-14T02:25:40.558Z,22.38
2018-06-14T02:26:40.325Z,22.44
2018-06-14T02:27:40.367Z,22.24
2018-06-14T02:28:40.389Z,22.31
2018-06-14T02:29:40.419Z,22.31
2018-06-14T02:30:40.454Z,22.31
2018-06-14T02:31:40.734Z,22.33
2018-06-14T02:32:40.515Z,22.33
2018-06-14T02:33:40.543Z,22.33
2018-06-14T02:34:40.580Z,22.21
2018-06-14T02:35:40.610Z,22.26
2018-06-14T02:36:40.641Z,22.31
2018-06-14T02:37:40.973Z,22.30
2018-06-14T02:38:40.704Z,22.30
2018-06-14T02:39:40.734Z,22.31
2018-06-14T02:40:40.765Z,22.29
2018-06-14T02:41:40.796Z,22.27
2018-06-14T02:42:40.828Z,22.26
2018-06-14T02:43:41.163Z,22.31
2018-06-14T02:44:40.899Z,22.33
2018-06-14T02:45:40.922Z,22.27
2018-06-14T02:46:40.958Z,22.23
2018-06-14T02:47:40.981Z,22.31
2018-06-14T02:48:41.019Z,22.26
2018-06-14T02:49:41.295Z,22.24
2018-06-14T02:50:41.077Z,22.29
2018-06-14T02:51:41.117Z,22.30
2018-06-14T02:52:41.147Z,22.21
2018-06-14T02:53:41.174Z,22.33
2018-06-14T02:54:41.201Z,22.29
2018-06-14T02:55:41.236Z,22.24
2018-06-14T02:56:41.514Z,22.31
2018-06-14T02:57:41.295Z,22.29
2018-06-14T02:58:41.331Z,22.29
2018-06-14T02:59:41.360Z,22.31
2018-06-14T03:00:41.394Z,22.31
2018-06-14T03:01:41.422Z,22.27
2018-06-14T03:02:41.497Z,22.33
2018-06-14T03:03:41.807Z,22.35
2018-06-14T03:04:41.518Z,22.30
2018-06-14T03:05:41.601Z,22.33
2018-06-14T03:07:41.607Z,22.30
2018-06-14T03:08:41.992Z,22.31
2018-06-14T03:09:41.679Z,22.30
2018-06-14T03:10:41.952Z,22.27
2018-06-14T03:11:41.752Z,22.31
2018-06-14T03:12:41.819Z,22.27
2018-06-14T03:13:41.798Z,22.33
2018-06-14T03:14:41.841Z,22.33
2018-06-14T03:15:41.860Z,22.26
2018-06-14T03:16:41.907Z,22.33
2018-06-14T03:17:42.169Z,22.31
2018-06-14T03:18:41.952Z,22.35
2018-06-14T03:19:41.988Z,22.35
2018-06-14T03:20:42.035Z,22.24
2018-06-14T03:21:42.055Z,22.24
2018-06-14T03:22:42.076Z,22.39
2018-06-14T03:23:42.108Z,22.33
2018-06-14T03:24:42.564Z,22.31
2018-06-14T03:25:42.172Z,22.24
2018-06-14T03:26:42.201Z,22.31
2018-06-14T03:27:42.232Z,22.38
2018-06-14T03:28:42.467Z,22.33
2018-06-14T03:29:42.344Z,22.39
2018-06-14T03:30:42.378Z,22.46
2018-06-14T03:31:42.662Z,22.31
2018-06-14T03:32:42.388Z,22.31
2018-06-14T03:33:42.419Z,22.41
2018-06-14T03:34:42.462Z,22.35
2018-06-14T03:35:42.539Z,22.39
2018-06-14T03:36:42.518Z,22.33
2018-06-14T03:37:42.545Z,22.42
2018-06-14T03:38:42.828Z,22.35
2018-06-14T03:39:42.607Z,22.41
2018-06-14T03:40:42.651Z,22.39
2018-06-14T03:41:42.716Z,22.46
2018-06-14T03:42:42.708Z,22.36
2018-06-14T03:43:42.733Z,22.42
2018-06-14T03:44:42.926Z,22.39
2018-06-14T03:45:43.247Z,22.39
2018-06-14T03:46:42.830Z,22.41
2018-06-14T03:47:42.858Z,22.41
2018-06-14T03:48:42.890Z,22.39
2018-06-14T03:49:42.922Z,22.44
2018-06-14T03:50:42.960Z,22.41
2018-06-14T03:51:42.985Z,22.41
2018-06-14T03:52:43.311Z,22.41
2018-06-14T03:53:43.061Z,22.45
2018-06-14T03:54:43.083Z,22.41
2018-06-14T03:56:43.142Z,22.36
2018-06-14T03:57:43.170Z,22.38
2018-06-14T03:58:43.200Z,22.46
2018-06-14T03:59:43.536Z,22.45
2018-06-14T04:00:43.618Z,22.41
2018-06-14T04:01:43.309Z,22.41
2018-06-14T04:02:43.326Z,22.44
2018-06-14T04:03:43.358Z,22.41
2018-06-14T04:04:43.390Z,22.39
2018-06-14T04:05:43.420Z,22.36
2018-06-14T04:06:43.756Z,22.30
2018-06-14T04:07:43.482Z,22.36
2018-06-14T04:08:43.518Z,22.42
2018-06-14T04:09:43.544Z,22.38
2018-06-14T04:11:43.611Z,22.39
2018-06-14T04:12:43.650Z,22.42
2018-06-14T04:13:43.673Z,22.42
2018-06-14T04:14:43.707Z,22.36
2018-06-14T04:15:43.736Z,22.42
2018-06-14T04:16:43.771Z,22.38
2018-06-14T04:17:44.048Z,22.41
2018-06-14T04:18:43.851Z,22.39
2018-06-14T04:19:43.861Z,22.41
2018-06-14T04:20:43.897Z,22.36
2018-06-14T04:21:43.925Z,22.39
2018-06-14T04:22:43.959Z,22.48
2018-06-14T04:23:44.487Z,22.39
2018-06-14T04:24:44.029Z,22.52
2018-06-14T04:25:44.048Z,22.49
2018-06-14T04:26:44.084Z,22.44
2018-06-14T04:27:44.114Z,22.54
2018-06-14T04:28:44.141Z,22.51
2018-06-14T04:29:44.484Z,22.59
2018-06-14T04:30:44.204Z,22.56
2018-06-14T04:31:44.245Z,22.63
2018-06-14T04:32:44.327Z,22.64
2018-06-14T04:33:44.297Z,22.57
2018-06-14T04:34:44.329Z,22.61
2018-06-14T04:35:44.610Z,22.67
2018-06-14T04:36:44.398Z,22.72
2018-06-14T04:37:44.425Z,22.69
2018-06-14T04:38:44.455Z,22.67
2018-06-14T04:39:44.540Z,22.61
2018-06-14T04:40:44.992Z,22.74
2018-06-14T04:41:44.810Z,22.74
2018-06-14T04:42:44.581Z,22.75
2018-06-14T04:43:44.623Z,22.72
2018-06-14T04:44:44.746Z,22.72
2018-06-14T04:45:44.697Z,22.75
2018-06-14T04:46:44.707Z,22.82
2018-06-14T04:47:44.738Z,22.81
2018-06-14T04:48:44.770Z,22.89
2018-06-14T04:49:44.803Z,22.94
2018-06-14T04:50:44.839Z,22.85
2018-06-14T04:51:44.872Z,22.82
2018-06-14T04:52:44.903Z,22.97
2018-06-14T04:53:44.930Z,22.96
2018-06-14T04:54:44.962Z,22.84
2018-06-14T04:55:44.996Z,22.91
2018-06-14T04:56:45.025Z,23.00
2018-06-14T04:57:45.059Z,22.99
2018-06-14T04:58:45.086Z,22.99
2018-06-14T04:59:45.425Z,22.99
2018-06-14T05:00:45.154Z,23.03
2018-06-14T05:01:45.197Z,23.01
2018-06-14T05:02:45.260Z,23.00
2018-06-14T05:03:45.251Z,23.00
2018-06-14T05:04:45.282Z,23.04
2018-06-14T05:05:45.564Z,23.00
2018-06-14T05:06:45.342Z,23.12
2018-06-14T05:07:45.444Z,23.07
2018-06-14T05:08:45.410Z,23.03
2018-06-14T05:09:45.435Z,23.01
2018-06-14T05:10:45.469Z,23.14
2018-06-14T05:11:45.803Z,23.06
2018-06-14T05:12:45.532Z,23.06
2018-06-14T05:13:45.637Z,23.18
2018-06-14T05:14:45.597Z,23.22
2018-06-14T05:15:45.635Z,23.18
2018-06-14T05:16:45.661Z,23.15
2018-06-14T05:17:46.006Z,23.18
2018-06-14T05:18:45.726Z,23.11
2018-06-14T05:19:45.755Z,23.19
2018-06-14T05:20:45.948Z,23.15
2018-06-14T05:21:45.819Z,23.15
2018-06-14T05:22:45.852Z,23.21
2018-06-14T05:23:46.186Z,23.25
2018-06-14T05:24:45.915Z,23.22
2018-06-14T05:25:45.996Z,23.23
2018-06-14T05:26:45.984Z,23.21
2018-06-14T05:27:46.214Z,23.25
2018-06-14T05:28:46.105Z,23.23
2018-06-14T05:29:46.080Z,23.29
2018-06-14T05:30:46.463Z,23.26
2018-06-14T05:31:46.138Z,23.29
2018-06-14T05:32:46.171Z,23.29
2018-06-14T05:33:46.252Z,23.35
2018-06-14T05:34:46.282Z,23.34
2018-06-14T05:35:46.267Z,23.31
2018-06-14T05:36:46.357Z,23.32
2018-06-14T05:37:46.585Z,23.41
2018-06-14T05:38:46.413Z,23.41
2018-06-14T05:39:46.555Z,23.41
2018-06-14T05:40:46.428Z,23.45
2018-06-14T05:41:46.460Z,23.42
2018-06-14T05:42:46.538Z,23.42
2018-06-14T05:43:46.575Z,23.42
2018-06-14T05:44:46.863Z,23.44
2018-06-14T05:45:46.644Z,23.45
2018-06-14T05:46:46.666Z,23.45
2018-06-14T05:47:46.725Z,23.49
2018-06-14T05:48:46.710Z,23.50
2018-06-14T05:49:46.975Z,23.49
2018-06-14T05:50:46.750Z,23.52
2018-06-14T05:51:47.136Z,23.50
2018-06-14T05:52:46.860Z,23.52
2018-06-14T05:53:46.845Z,23.56
2018-06-14T05:54:46.879Z,23.56
2018-06-14T05:55:46.965Z,23.53
2018-06-14T05:56:47.154Z,23.62
2018-06-14T05:57:47.530Z,23.56
2018-06-14T05:58:47.343Z,23.60
2018-06-14T05:59:47.092Z,23.60
2018-06-14T06:00:47.077Z,23.62
2018-06-14T06:01:47.659Z,23.62
2018-06-14T06:02:47.206Z,23.64
2018-06-14T06:03:47.427Z,23.62
2018-06-14T06:04:47.200Z,23.67
2018-06-14T06:05:47.283Z,23.59
2018-06-14T06:06:47.323Z,23.59
2018-06-14T06:07:47.551Z,23.68
2018-06-14T06:08:47.591Z,23.71
2018-06-14T06:09:47.363Z,23.67
2018-06-14T06:10:47.399Z,23.64
2018-06-14T06:11:47.684Z,23.68
2018-06-14T06:12:47.461Z,23.71
2018-06-14T06:13:47.699Z,23.69
2018-06-14T06:14:47.529Z,23.69
2018-06-14T06:16:47.649Z,23.69
2018-06-14T06:17:47.668Z,23.72
2018-06-14T06:18:48.260Z,23.77
2018-06-14T06:19:47.746Z,23.75
2018-06-14T06:20:47.723Z,23.74
2018-06-14T06:21:47.749Z,23.77
2018-06-14T06:22:47.866Z,23.74
2018-06-14T06:23:47.826Z,23.81
2018-06-14T06:24:48.113Z,23.72
2018-06-14T06:26:48.239Z,23.81
2018-06-14T06:27:47.994Z,23.87
2018-06-14T06:28:47.978Z,23.78
2018-06-14T06:29:48.008Z,23.86
2018-06-14T06:30:48.045Z,23.84
2018-06-14T06:31:48.076Z,23.87
2018-06-14T06:32:48.170Z,23.89
2018-06-14T06:33:48.443Z,23.90
2018-06-14T06:34:48.273Z,23.87
2018-06-14T06:35:48.204Z,23.90
2018-06-14T06:36:48.236Z,23.93
2018-06-14T06:37:48.273Z,23.93
2018-06-14T06:38:48.702Z,23.99
2018-06-14T06:39:48.333Z,23.99
2018-06-14T06:40:48.677Z,23.97
2018-06-14T06:41:48.447Z,23.87
2018-06-14T06:42:48.790Z,23.97
2018-06-14T06:43:48.515Z,23.92
2018-06-14T06:44:48.758Z,23.87
2018-06-14T06:45:48.589Z,23.92
2018-06-14T06:46:48.614Z,23.93
2018-06-14T06:47:49.198Z,23.94
2018-06-14T06:48:48.830Z,23.96
2018-06-14T06:49:48.662Z,23.94
2018-06-14T06:50:48.694Z,23.97
2018-06-14T06:51:48.775Z,23.97
2018-06-14T06:52:48.808Z,24.04
2018-06-14T06:53:49.289Z,24.02
2018-06-14T06:54:48.825Z,23.99
2018-06-14T06:55:48.912Z,24.02
2018-06-14T06:56:49.249Z,24.02
2018-06-14T06:57:48.969Z,24.06
2018-06-14T06:59:49.291Z,24.04
2018-06-14T07:00:49.592Z,24.06
2018-06-14T07:01:49.427Z,24.08
2018-06-14T07:02:49.135Z,24.06
2018-06-14T07:03:49.189Z,24.16
2018-06-14T07:04:49.356Z,24.09
2018-06-14T07:05:49.489Z,24.14
2018-06-14T07:06:49.235Z,24.16
2018-06-14T07:07:49.461Z,24.08
2018-06-14T07:08:49.280Z,24.00
2018-06-14T07:09:49.367Z,24.15
2018-06-14T07:10:49.397Z,24.02
2018-06-14T07:11:50.038Z,24.08
2018-06-14T07:12:49.411Z,24.21
2018-06-14T07:13:49.494Z,24.21
2018-06-14T07:14:49.681Z,24.09
2018-06-14T07:15:49.866Z,24.12
2018-06-14T07:17:49.881Z,24.18
2018-06-14T07:18:49.675Z,24.18
2018-06-14T07:19:49.712Z,24.16
2018-06-14T07:21:49.847Z,24.14
2018-06-14T07:22:49.787Z,24.12
2018-06-14T07:23:50.126Z,24.18
2018-06-14T07:24:49.854Z,24.26
2018-06-14T07:25:49.844Z,24.21
2018-06-14T07:26:49.879Z,24.19
2018-06-14T07:27:49.953Z,24.26
2018-06-14T07:28:49.987Z,24.23
2018-06-14T07:29:50.283Z,24.19
2018-06-14T07:30:50.003Z,24.27
2018-06-14T07:31:50.096Z,24.23
2018-06-14T07:32:50.118Z,24.26
2018-06-14T07:33:50.401Z,24.24
2018-06-14T07:34:50.182Z,24.21
2018-06-14T07:35:50.469Z,24.27
2018-06-14T07:36:50.561Z,24.33
2018-06-14T07:37:50.256Z,24.34
2018-06-14T07:38:50.353Z,24.31
2018-06-14T07:39:50.299Z,24.33
2018-06-14T07:40:50.394Z,24.34
2018-06-14T07:41:50.714Z,24.31
2018-06-14T07:42:50.445Z,24.36
2018-06-14T07:43:50.693Z,24.31
2018-06-14T07:44:50.641Z,24.31
2018-06-14T07:45:50.495Z,24.34
2018-06-14T07:46:50.790Z,24.37
2018-06-14T07:47:50.867Z,24.34
2018-06-14T07:48:50.613Z,24.34
2018-06-14T07:49:50.688Z,24.33
2018-06-14T07:50:51.020Z,24.37
2018-06-14T07:51:51.046Z,24.39
2018-06-14T07:52:50.733Z,24.42
2018-06-14T07:53:51.125Z,24.46
2018-06-14T07:55:50.916Z,24.39
2018-06-14T07:56:50.936Z,24.49
2018-06-14T07:57:50.904Z,24.49
2018-06-14T07:58:50.985Z,24.39
2018-06-14T08:02:51.388Z,24.51
2018-06-14T08:04:51.195Z,24.46
2018-06-14T08:05:51.410Z,24.48
2018-06-14T08:06:51.243Z,24.46
2018-06-14T08:07:51.269Z,24.48
2018-06-14T08:08:51.308Z,24.48
2018-06-14T08:09:51.538Z,24.56
2018-06-14T08:12:51.456Z,24.49
2018-06-14T08:15:51.787Z,24.61
2018-06-14T08:16:51.797Z,24.64
2018-06-14T08:17:51.607Z,24.56
2018-06-14T08:18:51.597Z,24.64
2018-06-14T08:19:51.628Z,24.55
2018-06-14T08:20:51.915Z,24.63
2018-06-14T08:21:51.745Z,24.61
2018-06-14T08:22:52.042Z,24.64
2018-06-14T08:23:51.808Z,24.60
2018-06-14T08:24:51.787Z,24.63
2018-06-14T08:25:51.893Z,24.55
2018-06-14T08:27:51.936Z,24.61
2018-06-14T08:28:52.272Z,24.68
2018-06-14T08:29:52.317Z,24.56
2018-06-14T08:30:52.039Z,24.75
2018-06-14T08:31:52.089Z,24.74
2018-06-14T08:32:52.055Z,24.74
2018-06-14T08:33:52.640Z,24.80
2018-06-14T08:34:52.120Z,24.74
2018-06-14T08:35:52.466Z,24.71
2018-06-14T08:36:52.691Z,24.75
2018-06-14T08:37:52.278Z,24.71
2018-06-14T08:38:52.305Z,24.70
2018-06-14T08:39:52.847Z,24.77
2018-06-14T08:40:52.324Z,24.71
2018-06-14T08:41:52.409Z,24.77
2018-06-14T08:42:52.637Z,24.82
2018-06-14T08:43:52.717Z,24.79
2018-06-14T08:44:52.544Z,24.79
2018-06-14T08:46:52.573Z,24.87
2018-06-14T08:48:52.684Z,24.86
2018-06-14T08:49:52.670Z,24.77
2018-06-14T08:50:52.938Z,24.86
2018-06-14T08:51:52.764Z,24.84
2018-06-14T08:52:52.785Z,24.89
2018-06-14T08:53:52.817Z,24.92
2018-06-14T08:54:53.356Z,24.87
2018-06-14T08:55:53.306Z,24.89
2018-06-14T08:58:53.222Z,24.87
2018-06-14T08:59:53.007Z,24.90
2018-06-14T09:01:53.981Z,24.94
2018-06-14T09:02:53.312Z,24.90
2018-06-14T09:03:53.294Z,24.86
2018-06-14T09:04:53.479Z,24.97
2018-06-14T09:05:53.408Z,24.87
2018-06-14T09:06:53.517Z,24.92
2018-06-14T09:07:53.277Z,24.99
2018-06-14T09:08:53.257Z,24.99
2018-06-14T09:09:53.299Z,25.04
2018-06-14T09:10:53.880Z,24.97
2018-06-14T09:11:53.667Z,24.94
2018-06-14T09:12:53.649Z,24.97
2018-06-14T09:13:53.492Z,25.02
2018-06-14T09:14:53.503Z,25.02
2018-06-14T09:16:54.008Z,25.08
2018-06-14T09:17:53.922Z,25.05
2018-06-14T09:19:53.944Z,25.01
2018-06-14T09:20:53.709Z,25.05
2018-06-14T09:21:53.945Z,24.99
2018-06-14T09:22:53.784Z,25.02
2018-06-14T09:23:54.019Z,25.04
2018-06-14T09:24:54.051Z,24.99
2018-06-14T09:25:54.085Z,25.02
2018-06-14T09:26:55.013Z,25.04
2018-06-14T09:27:53.955Z,25.02
2018-06-14T09:28:54.415Z,24.99
2018-06-14T09:29:54.051Z,25.01
2018-06-14T09:30:54.755Z,25.04
2018-06-14T09:32:54.569Z,25.07
2018-06-14T09:33:54.153Z,25.08
2018-06-14T09:34:54.182Z,25.09
2018-06-14T09:35:54.445Z,25.04
2018-06-14T09:36:54.250Z,25.16
2018-06-14T09:37:55.013Z,25.11
2018-06-14T09:38:54.530Z,25.19
2018-06-14T09:39:54.874Z,25.09
2018-06-14T09:40:54.419Z,25.12
2018-06-14T09:41:54.622Z,25.08
2018-06-14T09:42:54.829Z,25.19
2018-06-14T09:43:54.487Z,25.14
2018-06-14T09:44:54.829Z,25.20
2018-06-14T09:45:55.060Z,25.14
2018-06-14T09:46:54.612Z,25.14
2018-06-14T09:48:54.668Z,25.22
2018-06-14T09:50:54.980Z,25.11
2018-06-14T09:51:55.358Z,25.22
2018-06-14T09:52:54.790Z,25.20
2018-06-14T09:53:54.827Z,25.19
2018-06-14T09:56:55.239Z,25.23
2018-06-14T09:57:55.270Z,25.23
2018-06-14T09:58:54.996Z,25.24
2018-06-14T09:59:55.758Z,25.29
2018-06-14T10:01:55.666Z,25.30
2018-06-14T10:02:55.496Z,25.24
2018-06-14T10:04:55.657Z,25.23
2018-06-14T10:05:55.442Z,25.26
2018-06-14T10:06:55.467Z,25.23
2018-06-14T10:07:55.302Z,25.26
2018-06-14T10:09:55.333Z,25.19
2018-06-14T10:10:55.603Z,25.23
2018-06-14T10:11:55.685Z,25.26
2018-06-14T10:12:55.488Z,25.35
2018-06-14T10:13:55.550Z,25.30
2018-06-14T10:14:55.548Z,25.31
2018-06-14T10:15:55.780Z,25.24
2018-06-14T10:16:55.675Z,25.36
2018-06-14T10:18:56.438Z,25.34
2018-06-14T10:19:55.742Z,25.38
2018-06-14T10:20:55.947Z,25.34
2018-06-14T10:21:55.775Z,25.44
2018-06-14T10:23:55.870Z,25.42
2018-06-14T10:24:56.076Z,25.42
2018-06-14T10:25:56.163Z,25.42
2018-06-14T10:26:55.945Z,25.44
2018-06-14T10:27:55.991Z,25.41
2018-06-14T10:28:56.220Z,25.42
2018-06-14T10:30:56.391Z,25.35
2018-06-14T10:32:56.920Z,25.41
2018-06-14T10:35:56.414Z,25.41
2018-06-14T10:36:56.288Z,25.45
2018-06-14T10:37:56.637Z,25.45
2018-06-14T10:38:56.675Z,25.39
2018-06-14T10:39:56.556Z,25.42
2018-06-14T10:41:56.480Z,25.44
2018-06-14T10:42:56.503Z,25.44
2018-06-14T10:44:56.809Z,25.49
2018-06-14T10:45:56.595Z,25.45
2018-06-14T10:48:56.701Z,25.51
2018-06-14T10:49:57.133Z,25.54
2018-06-14T10:50:57.017Z,25.51
2018-06-14T10:53:56.874Z,25.44
2018-06-14T10:54:56.852Z,25.49
2018-06-14T10:55:56.973Z,25.46
2018-06-14T10:57:57.510Z,25.48
2018-06-14T10:59:57.081Z,25.56
2018-06-14T11:00:57.111Z,25.56
2018-06-14T11:02:57.390Z,25.60
2018-06-14T11:07:57.657Z,25.64
2018-06-14T11:09:57.723Z,25.66
2018-06-14T11:10:57.462Z,25.64
2018-06-14T11:12:57.532Z,25.64
2018-06-14T11:13:57.563Z,25.63
2018-06-14T11:14:57.847Z,25.64
2018-06-14T11:16:57.865Z,25.64
2018-06-14T11:17:57.700Z,25.67
2018-06-14T11:19:57.762Z,25.78
2018-06-14T11:20:57.809Z,25.76
2018-06-14T11:22:58.733Z,25.75
2018-06-14T11:25:57.974Z,25.85
2018-06-14T11:26:58.011Z,25.79
2018-06-14T11:27:58.001Z,25.94
2018-06-14T11:28:58.082Z,25.93
2018-06-14T11:29:59.035Z,25.91
2018-06-14T11:30:58.099Z,25.91
2018-06-14T11:31:58.492Z,25.91
2018-06-14T11:32:58.175Z,25.96
2018-06-14T11:34:58.591Z,25.89
2018-06-14T11:35:58.342Z,25.91
2018-06-14T11:36:58.570Z,26.00
2018-06-14T11:37:58.343Z,26.00
2018-06-14T11:38:58.430Z,26.00
2018-06-14T11:39:58.787Z,25.97
2018-06-14T11:40:58.550Z,26.01
2018-06-14T11:41:58.554Z,26.00
2018-06-14T11:42:58.519Z,25.97
2018-06-14T11:43:58.809Z,26.06
2018-06-14T11:44:58.839Z,26.03
2018-06-14T11:45:58.636Z,26.08
2018-06-14T11:46:58.659Z,26.09
2018-06-14T11:47:58.764Z,26.11
2018-06-14T11:48:58.866Z,26.19
2018-06-14T11:49:58.779Z,26.16
2018-06-14T11:50:59.102Z,26.16
2018-06-14T11:51:58.885Z,26.13
2018-06-14T11:52:58.877Z,26.19
2018-06-14T11:53:58.907Z,26.08
2018-06-14T11:54:59.005Z,26.13
2018-06-14T11:55:59.048Z,26.20
2018-06-14T11:56:59.377Z,26.24
2018-06-14T11:58:59.336Z,26.12
2018-06-14T12:00:59.508Z,26.08
2018-06-14T12:01:59.195Z,26.19
2018-06-14T12:02:59.276Z,26.11
2018-06-14T12:03:59.314Z,26.19
2018-06-14T12:04:59.502Z,26.19
2018-06-14T12:05:59.581Z,26.19
2018-06-14T12:06:59.372Z,26.13
2018-06-14T12:07:59.452Z,26.28
2018-06-14T12:08:59.696Z,26.23
2018-06-14T12:09:59.470Z,26.19
2018-06-14T12:10:59.691Z,26.29
2018-06-14T12:11:59.542Z,26.27
2018-06-14T12:12:59.876Z,26.20
2018-06-14T12:13:59.617Z,26.28
2018-06-14T12:14:59.651Z,26.27
2018-06-14T12:15:59.951Z,26.32
2018-06-14T12:17:59.811Z,26.27
2018-06-14T12:18:59.991Z,26.28
2018-06-14T12:20:00.080Z,26.24
2018-06-14T12:21:59.949Z,26.21
2018-06-14T12:22:59.932Z,26.23
2018-06-14T12:23:59.975Z,26.28
2018-06-14T12:25:00.003Z,26.28
2018-06-14T12:26:00.390Z,26.21
2018-06-14T12:27:00.127Z,26.19
2018-06-14T12:28:00.163Z,26.29
2018-06-14T12:29:00.149Z,26.24
2018-06-14T12:30:00.232Z,26.20
2018-06-14T12:31:00.269Z,26.24
2018-06-14T12:32:00.499Z,26.21
2018-06-14T12:33:00.360Z,26.31
2018-06-14T12:34:00.318Z,26.32
2018-06-14T12:35:00.424Z,26.28
2018-06-14T12:36:00.438Z,26.27
2018-06-14T12:37:00.486Z,26.23
2018-06-14T12:38:00.836Z,26.31
2018-06-14T12:39:00.498Z,26.31
2018-06-14T12:40:00.550Z,26.28
2018-06-14T12:41:00.614Z,26.34
2018-06-14T12:42:00.617Z,26.34
2018-06-14T12:44:00.925Z,26.38
2018-06-14T12:45:00.758Z,26.34
2018-06-14T12:46:00.803Z,26.32
2018-06-14T12:47:00.801Z,26.44
2018-06-14T12:48:00.837Z,26.47
2018-06-14T12:49:00.852Z,26.46
2018-06-14T12:50:01.643Z,26.47
2018-06-14T12:51:00.932Z,26.53
2018-06-14T12:52:00.961Z,26.54
2018-06-14T12:53:01.252Z,26.53
2018-06-14T12:54:01.311Z,26.59
2018-06-14T12:55:01.070Z,26.59
2018-06-14T12:56:01.352Z,26.54
2018-06-14T12:57:01.138Z,26.59
2018-06-14T12:58:01.180Z,26.60
2018-06-14T12:59:01.208Z,26.65
2018-06-14T13:00:01.244Z,26.61
2018-06-14T13:01:01.283Z,26.71
2018-06-14T13:02:01.571Z,26.66
2018-06-14T13:03:01.711Z,26.73
2018-06-14T13:04:01.403Z,26.73
2018-06-14T13:05:01.781Z,26.73
2018-06-14T13:06:01.472Z,26.76
2018-06-14T13:07:01.508Z,26.73
2018-06-14T13:08:01.833Z,26.81
2018-06-14T13:09:01.606Z,26.81
2018-06-14T13:10:01.666Z,26.86
2018-06-14T13:11:01.646Z,26.90
2018-06-14T13:12:01.742Z,26.86
2018-06-14T13:13:01.719Z,26.90
2018-06-14T13:14:02.007Z,26.83
2018-06-14T13:15:01.792Z,26.81
2018-06-14T13:16:01.826Z,26.88
2018-06-14T13:17:01.868Z,26.94
2018-06-14T13:18:01.896Z,26.87
2018-06-14T13:19:01.994Z,26.88
2018-06-14T13:20:02.654Z,26.87
2018-06-14T13:21:02.021Z,26.93
2018-06-14T13:22:02.125Z,26.90
2018-06-14T13:23:02.080Z,26.97
2018-06-14T13:24:02.135Z,26.94
2018-06-14T13:25:02.202Z,26.93
2018-06-14T13:26:02.445Z,27.02
2018-06-14T13:27:02.235Z,26.98
2018-06-14T13:28:02.263Z,26.97
2018-06-14T13:29:02.294Z,27.01
2018-06-14T13:30:02.344Z,26.98
2018-06-14T13:31:02.404Z,26.98
2018-06-14T13:32:02.704Z,27.03
2018-06-14T13:33:02.497Z,26.97
2018-06-14T13:34:02.482Z,26.97
2018-06-14T13:35:02.515Z,26.98
2018-06-14T13:36:02.631Z,27.05
2018-06-14T13:37:02.629Z,27.16
2018-06-14T13:38:02.975Z,27.06
2018-06-14T13:39:02.914Z,27.20
2018-06-14T13:40:02.706Z,27.03
2018-06-14T13:41:02.845Z,27.08
2018-06-14T13:42:02.771Z,27.08
2018-06-14T13:43:02.878Z,27.11
2018-06-14T13:44:02.891Z,27.18
2018-06-14T13:45:02.884Z,27.09
2018-06-14T13:46:03.289Z,27.16
2018-06-14T13:47:02.983Z,27.13
2018-06-14T13:48:03.024Z,27.18
2018-06-14T13:49:03.191Z,27.13
2018-06-14T13:50:03.145Z,27.15
2018-06-14T13:51:03.177Z,27.20
2018-06-14T13:52:03.138Z,27.23
2018-06-14T13:53:03.567Z,27.16
2018-06-14T13:54:03.231Z,27.09
2018-06-14T13:55:03.490Z,27.08
2018-06-14T13:56:03.286Z,27.05
2018-06-14T13:57:03.441Z,27.08
2018-06-14T13:58:03.666Z,27.08
2018-06-14T13:59:03.598Z,27.02
2018-06-14T14:00:03.932Z,27.13
2018-06-14T14:01:04.078Z,27.01
2018-06-14T14:04:03.663Z,27.01
2018-06-14T14:05:03.976Z,26.98
2018-06-14T14:06:03.646Z,27.02
2018-06-14T14:07:04.007Z,26.93
2018-06-14T14:08:03.726Z,26.96
2018-06-14T14:09:03.808Z,26.91
2018-06-14T14:10:03.808Z,26.88
2018-06-14T14:11:03.883Z,26.90
2018-06-14T14:12:03.870Z,26.87
2018-06-14T14:13:03.903Z,26.84
2018-06-14T14:14:04.189Z,26.84
2018-06-14T14:15:03.975Z,26.91
2018-06-14T14:16:04.017Z,26.86
2018-06-14T14:17:04.050Z,26.88